sensor_id;sensor_type;location;lat;lon;timestamp;pressure;altitude;pressure_sealevel;temperature;humidity
8637;BME280;4356;49.068;8.658;2024-02-15T00:01:04;100364.94;;;17.03;46.67
8637;BME280;4356;49.068;8.658;2024-02-15T00:03:30;100376.25;;;17.07;46.64
8637;BME280;4356;49.068;8.658;2024-02-15T00:05:57;100366.88;;;17.09;46.57
8637;BME280;4356;49.068;8.658;2024-02-15T00:08:25;100360.78;;;17.01;46.59
8637;BME280;4356;49.068;8.658;2024-02-15T00:10:52;100362.00;;;16.98;46.65
8637;BME280;4356;49.068;8.658;2024-02-15T00:13:19;100373.09;;;17.03;46.66
8637;BME280;4356;49.068;8.658;2024-02-15T00:15:44;100358.44;;;16.98;46.55
8637;BME280;4356;49.068;8.658;2024-02-15T00:18:14;100380.88;;;17.06;46.67
8637;BME280;4356;49.068;8.658;2024-02-15T00:20:39;100378.31;;;17.05;46.55
8637;BME280;4356;49.068;8.658;2024-02-15T00:23:04;100364.31;;;17.01;46.51
8637;BME280;4356;49.068;8.658;2024-02-15T00:25:31;100373.09;;;17.03;46.34
8637;BME280;4356;49.068;8.658;2024-02-15T00:27:57;100356.56;;;16.92;46.54
8637;BME280;4356;49.068;8.658;2024-02-15T00:30:22;100357.00;;;16.95;46.47
8637;BME280;4356;49.068;8.658;2024-02-15T00:32:48;100373.31;;;17.02;46.46
8637;BME280;4356;49.068;8.658;2024-02-15T00:35:13;100369.94;;;17.00;46.71
8637;BME280;4356;49.068;8.658;2024-02-15T00:37:42;100370.78;;;17.00;46.45
8637;BME280;4356;49.068;8.658;2024-02-15T00:40:08;100369.56;;;17.03;46.29
8637;BME280;4356;49.068;8.658;2024-02-15T00:42:34;100343.56;;;16.87;46.51
8637;BME280;4356;49.068;8.658;2024-02-15T00:44:59;100358.44;;;16.98;46.38
8637;BME280;4356;49.068;8.658;2024-02-15T00:47:25;100365.38;;;17.00;46.21
8637;BME280;4356;49.068;8.658;2024-02-15T00:49:50;100337.47;;;16.79;46.38
8637;BME280;4356;49.068;8.658;2024-02-15T00:52:16;100326.41;;;16.80;46.36
8637;BME280;4356;49.068;8.658;2024-02-15T00:54:45;100355.94;;;16.96;46.08
8637;BME280;4356;49.068;8.658;2024-02-15T00:57:11;100345.94;;;16.97;46.05
8637;BME280;4356;49.068;8.658;2024-02-15T00:59:36;100354.28;;;16.95;46.34
8637;BME280;4356;49.068;8.658;2024-02-15T01:02:02;100346.34;;;16.94;46.04
8637;BME280;4356;49.068;8.658;2024-02-15T01:04:28;100346.50;;;16.92;46.17
8637;BME280;4356;49.068;8.658;2024-02-15T01:06:54;100345.28;;;16.95;46.11
8637;BME280;4356;49.068;8.658;2024-02-15T01:09:21;100334.16;;;16.83;46.15
8637;BME280;4356;49.068;8.658;2024-02-15T01:11:47;100321.41;;;16.77;46.05
8637;BME280;4356;49.068;8.658;2024-02-15T01:14:13;100343.34;;;16.89;46.03
8637;BME280;4356;49.068;8.658;2024-02-15T01:16:38;100353.00;;;16.91;45.99
8637;BME280;4356;49.068;8.658;2024-02-15T01:19:03;100354.88;;;16.91;46.23
8637;BME280;4356;49.068;8.658;2024-02-15T01:21:30;100351.50;;;16.89;45.98
8637;BME280;4356;49.068;8.658;2024-02-15T01:23:58;100352.75;;;16.86;46.16
8637;BME280;4356;49.068;8.658;2024-02-15T01:26:25;100350.88;;;16.87;46.22
8637;BME280;4356;49.068;8.658;2024-02-15T01:28:51;100367.78;;;16.89;46.14
8637;BME280;4356;49.068;8.658;2024-02-15T01:31:16;100349.41;;;16.84;46.44
8637;BME280;4356;49.068;8.658;2024-02-15T01:33:43;100358.41;;;16.85;46.45
8637;BME280;4356;49.068;8.658;2024-02-15T01:36:08;100355.84;;;16.83;46.25
8637;BME280;4356;49.068;8.658;2024-02-15T01:38:34;100364.44;;;16.87;46.30
8637;BME280;4356;49.068;8.658;2024-02-15T01:40:59;100342.47;;;16.75;46.22
8637;BME280;4356;49.068;8.658;2024-02-15T01:43:24;100361.13;;;16.85;46.27
8637;BME280;4356;49.068;8.658;2024-02-15T01:45:50;100344.34;;;16.75;46.46
8637;BME280;4356;49.068;8.658;2024-02-15T01:48:16;100363.81;;;16.85;46.20
8637;BME280;4356;49.068;8.658;2024-02-15T01:50:42;100362.13;;;16.84;46.38
8637;BME280;4356;49.068;8.658;2024-02-15T01:53:09;100361.91;;;16.79;46.50
8637;BME280;4356;49.068;8.658;2024-02-15T01:55:35;100348.13;;;16.80;46.28
8637;BME280;4356;49.068;8.658;2024-02-15T01:58:01;100358.56;;;16.83;46.09
8637;BME280;4356;49.068;8.658;2024-02-15T02:00:27;100352.72;;;16.80;46.39
8637;BME280;4356;49.068;8.658;2024-02-15T02:02:53;100337.44;;;16.72;46.61
8637;BME280;4356;49.068;8.658;2024-02-15T02:05:19;100337.63;;;16.71;46.48
8637;BME280;4356;49.068;8.658;2024-02-15T02:07:44;100346.03;;;16.76;46.18
8637;BME280;4356;49.068;8.658;2024-02-15T02:10:10;100330.53;;;16.70;46.36
8637;BME280;4356;49.068;8.658;2024-02-15T02:12:40;100328.03;;;16.68;46.57
8637;BME280;4356;49.068;8.658;2024-02-15T02:15:09;100341.22;;;16.78;46.34
8637;BME280;4356;49.068;8.658;2024-02-15T02:17:36;100345.19;;;16.75;46.50
8637;BME280;4356;49.068;8.658;2024-02-15T02:20:02;100349.34;;;16.78;46.55
8637;BME280;4356;49.068;8.658;2024-02-15T02:22:33;100346.19;;;16.74;46.58
8637;BME280;4356;49.068;8.658;2024-02-15T02:25:05;100342.25;;;16.77;46.59
8637;BME280;4356;49.068;8.658;2024-02-15T02:27:32;100331.56;;;16.69;46.58
8637;BME280;4356;49.068;8.658;2024-02-15T02:29:58;100336.59;;;16.72;46.58
8637;BME280;4356;49.068;8.658;2024-02-15T02:32:25;100333.03;;;16.71;46.39
8637;BME280;4356;49.068;8.658;2024-02-15T02:34:51;100331.38;;;16.70;46.47
8637;BME280;4356;49.068;8.658;2024-02-15T02:37:16;100337.25;;;16.74;46.46
8637;BME280;4356;49.068;8.658;2024-02-15T02:39:42;100324.03;;;16.64;46.27
8637;BME280;4356;49.068;8.658;2024-02-15T02:42:08;100321.28;;;16.58;46.66
8637;BME280;4356;49.068;8.658;2024-02-15T02:44:33;100340.34;;;16.71;46.22
8637;BME280;4356;49.068;8.658;2024-02-15T02:46:59;100342.22;;;16.70;46.12
8637;BME280;4356;49.068;8.658;2024-02-15T02:49:25;100343.91;;;16.71;46.25
8637;BME280;4356;49.068;8.658;2024-02-15T02:51:50;100340.53;;;16.69;46.34
8637;BME280;4356;49.068;8.658;2024-02-15T02:54:16;100345.13;;;16.69;46.33
8637;BME280;4356;49.068;8.658;2024-02-15T02:56:41;100338.03;;;16.68;46.12
8637;BME280;4356;49.068;8.658;2024-02-15T02:59:09;100323.16;;;16.57;46.36
8637;BME280;4356;49.068;8.658;2024-02-15T03:01:34;100333.00;;;16.65;46.14
8637;BME280;4356;49.068;8.658;2024-02-15T03:04:00;100341.59;;;16.68;46.49
8637;BME280;4356;49.068;8.658;2024-02-15T03:06:26;100339.25;;;16.65;46.15
8637;BME280;4356;49.068;8.658;2024-02-15T03:08:53;100338.03;;;16.68;46.40
8637;BME280;4356;49.068;8.658;2024-02-15T03:11:19;100327.75;;;16.63;46.42
8637;BME280;4356;49.068;8.658;2024-02-15T03:13:45;100338.44;;;16.65;46.34
8637;BME280;4356;49.068;8.658;2024-02-15T03:16:11;100341.78;;;16.67;46.08
8637;BME280;4356;49.068;8.658;2024-02-15T03:18:36;100319.59;;;16.57;46.28
8637;BME280;4356;49.068;8.658;2024-02-15T03:21:01;100316.09;;;16.63;46.32
8637;BME280;4356;49.068;8.658;2024-02-15T03:23:27;100324.03;;;16.64;46.18
8637;BME280;4356;49.068;8.658;2024-02-15T03:25:53;100321.53;;;16.63;46.29
8637;BME280;4356;49.068;8.658;2024-02-15T03:28:19;100315.84;;;16.58;46.48
8637;BME280;4356;49.068;8.658;2024-02-15T03:30:46;100303.50;;;16.49;46.16
8637;BME280;4356;49.068;8.658;2024-02-15T03:33:12;100325.88;;;16.64;46.01
8637;BME280;4356;49.068;8.658;2024-02-15T03:35:38;100330.47;;;16.63;46.32
8637;BME280;4356;49.068;8.658;2024-02-15T03:38:04;100328.38;;;16.59;46.27
8637;BME280;4356;49.068;8.658;2024-02-15T03:40:29;100332.75;;;16.60;46.45
8637;BME280;4356;49.068;8.658;2024-02-15T03:42:55;100333.16;;;16.57;46.27
8637;BME280;4356;49.068;8.658;2024-02-15T03:45:21;100315.34;;;16.48;46.50
8637;BME280;4356;49.068;8.658;2024-02-15T03:47:51;100338.19;;;16.60;46.25
8637;BME280;4356;49.068;8.658;2024-02-15T03:50:17;100335.28;;;16.61;46.46
8637;BME280;4356;49.068;8.658;2024-02-15T03:52:44;100333.16;;;16.57;46.69
8637;BME280;4356;49.068;8.658;2024-02-15T03:55:10;100343.59;;;16.60;46.40
8637;BME280;4356;49.068;8.658;2024-02-15T03:57:38;100336.94;;;16.62;46.41
8637;BME280;4356;49.068;8.658;2024-02-15T04:00:09;100330.44;;;16.57;46.29
8637;BME280;4356;49.068;8.658;2024-02-15T04:02:36;100330.25;;;16.58;46.35
8637;BME280;4356;49.068;8.658;2024-02-15T04:05:02;100336.31;;;16.60;46.39
8637;BME280;4356;49.068;8.658;2024-02-15T04:07:30;100325.66;;;16.59;46.31
8637;BME280;4356;49.068;8.658;2024-02-15T04:09:55;100317.28;;;16.54;46.35
8637;BME280;4356;49.068;8.658;2024-02-15T04:12:21;100311.63;;;16.49;46.06
8637;BME280;4356;49.068;8.658;2024-02-15T04:14:50;100319.78;;;16.55;46.04
8637;BME280;4356;49.068;8.658;2024-02-15T04:17:16;100319.59;;;16.57;46.15
8637;BME280;4356;49.068;8.658;2024-02-15T04:19:46;100332.13;;;16.58;46.53
8637;BME280;4356;49.068;8.658;2024-02-15T04:22:15;100326.25;;;16.54;46.63
8637;BME280;4356;49.068;8.658;2024-02-15T04:24:44;100335.66;;;16.58;46.68
8637;BME280;4356;49.068;8.658;2024-02-15T04:27:10;100321.88;;;16.53;46.80
8637;BME280;4356;49.068;8.658;2024-02-15T04:29:39;100321.22;;;16.51;46.57
8637;BME280;4356;49.068;8.658;2024-02-15T04:32:12;100324.56;;;16.53;46.45
8637;BME280;4356;49.068;8.658;2024-02-15T04:34:41;100336.72;;;16.57;46.43
8637;BME280;4356;49.068;8.658;2024-02-15T04:37:06;100317.41;;;16.45;46.64
8637;BME280;4356;49.068;8.658;2024-02-15T04:39:33;100333.16;;;16.57;46.45
8637;BME280;4356;49.068;8.658;2024-02-15T04:41:58;100328.56;;;16.57;46.68
8637;BME280;4356;49.068;8.658;2024-02-15T04:44:23;100326.44;;;16.53;46.86
8637;BME280;4356;49.068;8.658;2024-02-15T04:46:53;100328.78;;;16.56;46.70
8637;BME280;4356;49.068;8.658;2024-02-15T04:49:19;100329.81;;;16.55;46.58
8637;BME280;4356;49.068;8.658;2024-02-15T04:51:45;100316.66;;;16.52;46.92
8637;BME280;4356;49.068;8.658;2024-02-15T04:54:11;100318.09;;;16.54;46.98
8637;BME280;4356;49.068;8.658;2024-02-15T04:56:40;100315.59;;;16.53;46.63
8637;BME280;4356;49.068;8.658;2024-02-15T04:59:06;100315.78;;;16.51;46.91
8637;BME280;4356;49.068;8.658;2024-02-15T05:01:37;100325.88;;;16.57;46.77
8637;BME280;4356;49.068;8.658;2024-02-15T05:04:02;100304.94;;;16.51;46.74
8637;BME280;4356;49.068;8.658;2024-02-15T05:06:32;100289.91;;;16.49;46.84
8637;BME280;4356;49.068;8.658;2024-02-15T05:08:58;100297.00;;;16.50;46.65
8637;BME280;4356;49.068;8.658;2024-02-15T05:11:25;100306.81;;;16.51;46.73
8637;BME280;4356;49.068;8.658;2024-02-15T05:13:51;100310.81;;;16.55;46.92
8637;BME280;4356;49.068;8.658;2024-02-15T05:16:17;100309.97;;;16.54;46.96
8637;BME280;4356;49.068;8.658;2024-02-15T05:18:43;100307.25;;;16.54;46.80
8637;BME280;4356;49.068;8.658;2024-02-15T05:21:08;100300.78;;;16.49;46.71
8637;BME280;4356;49.068;8.658;2024-02-15T05:23:37;100307.66;;;16.51;46.79
8637;BME280;4356;49.068;8.658;2024-02-15T05:26:05;100306.63;;;16.52;46.80
8637;BME280;4356;49.068;8.658;2024-02-15T05:28:31;100302.03;;;16.53;46.83
8637;BME280;4356;49.068;8.658;2024-02-15T05:31:18;100298.66;;;16.51;46.34
8637;BME280;4356;49.068;8.658;2024-02-15T05:33:48;100297.00;;;16.50;46.68
8637;BME280;4356;49.068;8.658;2024-02-15T05:36:14;100283.19;;;16.44;46.80
8637;BME280;4356;49.068;8.658;2024-02-15T05:38:40;100289.25;;;16.46;46.76
8637;BME280;4356;49.068;8.658;2024-02-15T05:41:06;100301.59;;;16.49;46.55
8637;BME280;4356;49.068;8.658;2024-02-15T05:43:35;100298.41;;;16.45;46.50
8637;BME280;4356;49.068;8.658;2024-02-15T05:46:04;100308.06;;;16.48;46.64
8637;BME280;4356;49.068;8.658;2024-02-15T05:48:29;100295.69;;;16.45;46.53
8637;BME280;4356;49.068;8.658;2024-02-15T05:50:56;100296.38;;;16.48;46.53
8637;BME280;4356;49.068;8.658;2024-02-15T05:53:23;100294.03;;;16.44;46.82
8637;BME280;4356;49.068;8.658;2024-02-15T05:55:48;100300.28;;;16.45;46.37
8637;BME280;4356;49.068;8.658;2024-02-15T05:58:15;100298.06;;;16.49;46.45
8637;BME280;4356;49.068;8.658;2024-02-15T06:00:40;100289.84;;;16.42;46.54
8637;BME280;4356;49.068;8.658;2024-02-15T06:03:06;100290.09;;;16.47;46.79
8637;BME280;4356;49.068;8.658;2024-02-15T06:05:31;100285.91;;;16.44;46.53
8637;BME280;4356;49.068;8.658;2024-02-15T06:08:00;100291.78;;;16.48;46.55
8637;BME280;4356;49.068;8.658;2024-02-15T06:10:26;100290.94;;;16.48;46.73
8637;BME280;4356;49.068;8.658;2024-02-15T06:12:51;100292.97;;;16.45;46.54
8637;BME280;4356;49.068;8.658;2024-02-15T06:15:17;100295.69;;;16.45;46.67
8637;BME280;4356;49.068;8.658;2024-02-15T06:17:43;100298.06;;;16.49;46.63
8637;BME280;4356;49.068;8.658;2024-02-15T06:20:12;100304.75;;;16.53;46.62
8637;BME280;4356;49.068;8.658;2024-02-15T06:22:39;100296.81;;;16.51;46.52
8637;BME280;4356;49.068;8.658;2024-02-15T06:25:05;100291.38;;;16.51;46.44
8637;BME280;4356;49.068;8.658;2024-02-15T06:27:31;100292.88;;;16.54;46.64
8637;BME280;4356;49.068;8.658;2024-02-15T06:29:57;100283.44;;;16.50;46.51
8637;BME280;4356;49.068;8.658;2024-02-15T06:32:42;100291.81;;;16.55;46.43
8637;BME280;4356;49.068;8.658;2024-02-15T06:35:27;100278.25;;;16.55;46.69
8637;BME280;4356;49.068;8.658;2024-02-15T06:38:11;100292.47;;;16.57;46.84
8637;BME280;4356;49.068;8.658;2024-02-15T06:40:55;100271.38;;;16.52;46.37
8637;BME280;4356;49.068;8.658;2024-02-15T06:43:20;100280.75;;;16.56;46.51
8637;BME280;4356;49.068;8.658;2024-02-15T06:45:46;100277.03;;;16.57;46.70
8637;BME280;4356;49.068;8.658;2024-02-15T06:48:12;100274.53;;;16.56;46.57
8637;BME280;4356;49.068;8.658;2024-02-15T06:50:38;100273.47;;;16.57;46.70
8637;BME280;4356;49.068;8.658;2024-02-15T06:53:04;100270.34;;;16.60;46.60
8637;BME280;4356;49.068;8.658;2024-02-15T06:55:30;100269.53;;;16.59;46.60
8637;BME280;4356;49.068;8.658;2024-02-15T06:57:56;100271.41;;;16.65;46.42
8637;BME280;4356;49.068;8.658;2024-02-15T07:00:25;100262.84;;;16.62;46.34
8637;BME280;4356;49.068;8.658;2024-02-15T07:02:52;100266.19;;;16.64;46.25
8637;BME280;4356;49.068;8.658;2024-02-15T07:05:18;100270.41;;;16.66;46.50
8637;BME280;4356;49.068;8.658;2024-02-15T07:07:44;100274.38;;;16.70;46.55
8637;BME280;4356;49.068;8.658;2024-02-15T07:10:10;100264.56;;;16.69;46.35
8637;BME280;4356;49.068;8.658;2024-02-15T07:12:36;100267.94;;;16.78;46.38
8637;BME280;4356;49.068;8.658;2024-02-15T07:15:01;100254.34;;;16.71;46.53
8637;BME280;4356;49.068;8.658;2024-02-15T07:17:28;100262.50;;;16.78;46.36
8637;BME280;4356;49.068;8.658;2024-02-15T07:19:54;100260.25;;;16.81;46.15
8637;BME280;4356;49.068;8.658;2024-02-15T07:22:20;100267.13;;;16.84;46.25
8637;BME280;4356;49.068;8.658;2024-02-15T07:24:47;100261.50;;;16.85;46.06
8637;BME280;4356;49.068;8.658;2024-02-15T07:27:12;100263.63;;;16.90;45.92
8637;BME280;4356;49.068;8.658;2024-02-15T07:29:38;100253.34;;;16.85;46.01
8637;BME280;4356;49.068;8.658;2024-02-15T07:32:06;100256.91;;;16.92;46.33
8637;BME280;4356;49.068;8.658;2024-02-15T07:34:33;100252.53;;;16.91;46.28
8637;BME280;4356;49.068;8.658;2024-02-15T07:36:59;100244.63;;;16.90;46.32
8637;BME280;4356;49.068;8.658;2024-02-15T07:39:25;100240.19;;;16.89;45.90
8637;BME280;4356;49.068;8.658;2024-02-15T07:41:56;100237.53;;;16.95;46.17
8637;BME280;4356;49.068;8.658;2024-02-15T07:44:23;100236.47;;;16.96;46.02
8637;BME280;4356;49.068;8.658;2024-02-15T07:46:50;100233.97;;;16.95;46.25
8637;BME280;4356;49.068;8.658;2024-02-15T07:49:16;100241.69;;;16.98;46.28
8637;BME280;4356;49.068;8.658;2024-02-15T07:51:43;100232.53;;;16.99;46.31
8637;BME280;4356;49.068;8.658;2024-02-15T07:54:09;100240.69;;;16.99;45.96
8637;BME280;4356;49.068;8.658;2024-02-15T07:56:35;100232.53;;;16.99;46.29
8637;BME280;4356;49.068;8.658;2024-02-15T07:59:01;100227.31;;;16.97;46.61
8637;BME280;4356;49.068;8.658;2024-02-15T08:01:27;100228.75;;;17.00;46.11
8637;BME280;4356;49.068;8.658;2024-02-15T08:03:54;100239.22;;;17.03;46.25
8637;BME280;4356;49.068;8.658;2024-02-15T08:06:20;100242.75;;;17.03;46.35
8637;BME280;4356;49.068;8.658;2024-02-15T08:08:47;100231.47;;;17.00;46.17
8637;BME280;4356;49.068;8.658;2024-02-15T08:11:13;100244.25;;;17.06;46.07
8637;BME280;4356;49.068;8.658;2024-02-15T08:13:50;100243.41;;;17.05;46.22
8637;BME280;4356;49.068;8.658;2024-02-15T08:16:20;100248.44;;;17.08;46.05
8637;BME280;4356;49.068;8.658;2024-02-15T08:18:48;100238.81;;;17.06;46.03
8637;BME280;4356;49.068;8.658;2024-02-15T08:21:14;100225.03;;;17.01;46.20
8637;BME280;4356;49.068;8.658;2024-02-15T08:23:39;100240.28;;;17.08;45.95
8637;BME280;4356;49.068;8.658;2024-02-15T08:26:05;100242.59;;;17.11;46.31
8637;BME280;4356;49.068;8.658;2024-02-15T08:28:30;100243.22;;;17.13;46.00
8637;BME280;4356;49.068;8.658;2024-02-15T08:30:56;100237.59;;;17.08;46.10
8637;BME280;4356;49.068;8.658;2024-02-15T08:33:25;100235.50;;;17.17;46.11
8637;BME280;4356;49.068;8.658;2024-02-15T08:35:53;100227.75;;;17.14;46.09
8637;BME280;4356;49.068;8.658;2024-02-15T08:38:21;100236.34;;;17.17;45.93
8637;BME280;4356;49.068;8.658;2024-02-15T08:40:46;100224.00;;;17.15;45.73
8637;BME280;4356;49.068;8.658;2024-02-15T08:43:13;100230.50;;;17.20;45.92
8637;BME280;4356;49.068;8.658;2024-02-15T08:45:40;100227.56;;;17.22;46.24
8637;BME280;4356;49.068;8.658;2024-02-15T08:48:07;100216.06;;;17.13;45.86
8637;BME280;4356;49.068;8.658;2024-02-15T08:50:32;100223.41;;;17.26;45.83
8637;BME280;4356;49.068;8.658;2024-02-15T08:52:58;100226.34;;;17.31;45.88
8637;BME280;4356;49.068;8.658;2024-02-15T08:55:23;100220.06;;;17.30;45.99
8637;BME280;4356;49.068;8.658;2024-02-15T08:57:53;100205.84;;;17.28;46.00
8637;BME280;4356;49.068;8.658;2024-02-15T09:00:19;100230.75;;;17.45;45.71
8637;BME280;4356;49.068;8.658;2024-02-15T09:02:45;100230.78;;;17.52;45.62
8637;BME280;4356;49.068;8.658;2024-02-15T09:05:11;100215.13;;;17.54;45.65
8637;BME280;4356;49.068;8.658;2024-02-15T09:07:44;100226.41;;;17.64;45.79
8637;BME280;4356;49.068;8.658;2024-02-15T09:10:13;100230.38;;;17.74;45.59
8637;BME280;4356;49.068;8.658;2024-02-15T09:12:39;100224.13;;;17.80;45.08
8637;BME280;4356;49.068;8.658;2024-02-15T09:15:06;100217.41;;;17.83;45.08
8637;BME280;4356;49.068;8.658;2024-02-15T09:17:33;100221.16;;;17.88;44.98
8637;BME280;4356;49.068;8.658;2024-02-15T09:20:07;100208.81;;;17.92;45.11
8637;BME280;4356;49.068;8.658;2024-02-15T09:22:34;100211.34;;;18.00;44.87
8637;BME280;4356;49.068;8.658;2024-02-15T09:25:04;100211.53;;;18.05;44.92
8637;BME280;4356;49.068;8.658;2024-02-15T09:27:29;100205.66;;;18.08;44.83
8637;BME280;4356;49.068;8.658;2024-02-15T09:29:55;100201.03;;;18.15;44.93
8637;BME280;4356;49.068;8.658;2024-02-15T09:32:21;100194.56;;;18.16;44.81
8637;BME280;4356;49.068;8.658;2024-02-15T09:34:47;100199.97;;;18.23;44.83
8637;BME280;4356;49.068;8.658;2024-02-15T09:37:13;100184.31;;;18.18;44.88
8637;BME280;4356;49.068;8.658;2024-02-15T09:39:39;100188.47;;;18.27;44.40
8637;BME280;4356;49.068;8.658;2024-02-15T09:42:04;100190.94;;;18.35;44.31
8637;BME280;4356;49.068;8.658;2024-02-15T09:44:30;100198.72;;;18.38;44.14
8637;BME280;4356;49.068;8.658;2024-02-15T09:47:03;100197.84;;;18.44;44.22
8637;BME280;4356;49.068;8.658;2024-02-15T09:49:38;100192.63;;;18.50;44.10
8637;BME280;4356;49.068;8.658;2024-02-15T09:52:08;100189.47;;;18.53;44.09
8637;BME280;4356;49.068;8.658;2024-02-15T09:54:41;100181.09;;;18.54;43.90
8637;BME280;4356;49.068;8.658;2024-02-15T09:57:11;100176.88;;;18.58;44.16
8637;BME280;4356;49.068;8.658;2024-02-15T09:59:40;100171.84;;;18.62;43.86
8637;BME280;4356;49.068;8.658;2024-02-15T10:02:07;100182.06;;;18.73;43.76
8637;BME280;4356;49.068;8.658;2024-02-15T10:04:39;100163.41;;;18.76;43.70
8637;BME280;4356;49.068;8.658;2024-02-15T10:07:05;100169.66;;;18.83;43.77
8637;BME280;4356;49.068;8.658;2024-02-15T10:09:34;100171.50;;;18.89;43.49
8637;BME280;4356;49.068;8.658;2024-02-15T10:12:02;100164.97;;;18.97;43.18
8637;BME280;4356;49.068;8.658;2024-02-15T10:14:29;100146.31;;;18.94;43.09
8637;BME280;4356;49.068;8.658;2024-02-15T10:16:56;100136.66;;;18.98;43.30
8637;BME280;4356;49.068;8.658;2024-02-15T10:19:22;100147.88;;;19.14;42.95
8637;BME280;4356;49.068;8.658;2024-02-15T10:21:52;100143.66;;;19.18;43.13
8637;BME280;4356;49.068;8.658;2024-02-15T10:24:21;100142.16;;;19.22;42.96
8637;BME280;4356;49.068;8.658;2024-02-15T10:26:48;100142.13;;;19.29;42.99
8637;BME280;4356;49.068;8.658;2024-02-15T10:29:14;100145.03;;;19.34;42.92
8637;BME280;4356;49.068;8.658;2024-02-15T10:31:53;100136.88;;;19.34;42.89
8637;BME280;4356;49.068;8.658;2024-02-15T10:34:20;100139.31;;;19.42;42.53
8637;BME280;4356;49.068;8.658;2024-02-15T10:36:45;100119.84;;;19.38;42.60
8637;BME280;4356;49.068;8.658;2024-02-15T10:39:18;100133.56;;;19.50;42.26
8637;BME280;4356;49.068;8.658;2024-02-15T10:41:48;100128.75;;;19.52;42.25
8637;BME280;4356;49.068;8.658;2024-02-15T10:44:16;100136.28;;;19.57;42.40
8637;BME280;4356;49.068;8.658;2024-02-15T10:46:44;100131.19;;;19.60;41.97
8637;BME280;4356;49.068;8.658;2024-02-15T10:49:09;100138.47;;;19.66;41.97
8637;BME280;4356;49.068;8.658;2024-02-15T10:51:35;100131.97;;;19.67;41.97
8637;BME280;4356;49.068;8.658;2024-02-15T10:54:06;100121.06;;;19.67;42.03
8637;BME280;4356;49.068;8.658;2024-02-15T10:56:34;100126.53;;;19.67;41.43
8637;BME280;4356;49.068;8.658;2024-02-15T10:59:19;100132.75;;;19.74;41.26
8637;BME280;4356;49.068;8.658;2024-02-15T11:01:50;100113.69;;;19.68;41.06
8637;BME280;4356;49.068;8.658;2024-02-15T11:04:20;100121.84;;;19.74;41.58
8637;BME280;4356;49.068;8.658;2024-02-15T11:06:54;100102.22;;;19.66;41.09
8637;BME280;4356;49.068;8.658;2024-02-15T11:09:21;100117.81;;;19.77;41.30
8637;BME280;4356;49.068;8.658;2024-02-15T11:11:47;100111.97;;;19.73;41.52
8637;BME280;4356;49.068;8.658;2024-02-15T11:14:31;100108.34;;;19.79;41.32
8637;BME280;4356;49.068;8.658;2024-02-15T11:16:59;100102.28;;;19.77;41.33
8637;BME280;4356;49.068;8.658;2024-02-15T11:22:00;100090.91;;;19.80;41.24
8637;BME280;4356;49.068;8.658;2024-02-15T11:24:30;100096.78;;;19.84;41.01
8637;BME280;4356;49.068;8.658;2024-02-15T11:27:04;100091.09;;;19.85;40.78
8637;BME280;4356;49.068;8.658;2024-02-15T11:32:51;100097.97;;;19.88;40.96
8637;BME280;4356;49.068;8.658;2024-02-15T11:35:22;100092.50;;;19.88;41.12
8637;BME280;4356;49.068;8.658;2024-02-15T11:40:23;100081.59;;;19.88;41.28
8637;BME280;4356;49.068;8.658;2024-02-15T11:42:52;100083.06;;;19.90;40.78
8637;BME280;4356;49.068;8.658;2024-02-15T11:45:22;100088.50;;;19.90;41.10
8637;BME280;4356;49.068;8.658;2024-02-15T11:47:50;100081.97;;;19.91;41.21
8637;BME280;4356;49.068;8.658;2024-02-15T11:50:18;100080.09;;;19.92;41.02
8637;BME280;4356;49.068;8.658;2024-02-15T11:52:44;100077.00;;;19.88;40.86
8637;BME280;4356;49.068;8.658;2024-02-15T11:55:21;100063.13;;;19.90;41.49
8637;BME280;4356;49.068;8.658;2024-02-15T11:58:03;100061.25;;;19.90;41.29
8637;BME280;4356;49.068;8.658;2024-02-15T12:00:36;100057.06;;;19.88;41.38
8637;BME280;4356;49.068;8.658;2024-02-15T12:03:21;100059.13;;;19.92;41.07
8637;BME280;4356;49.068;8.658;2024-02-15T12:06:06;100051.84;;;19.86;40.94
8637;BME280;4356;49.068;8.658;2024-02-15T12:08:52;100050.34;;;19.90;41.33
8637;BME280;4356;49.068;8.658;2024-02-15T12:11:37;100051.38;;;19.89;41.36
8637;BME280;4356;49.068;8.658;2024-02-15T12:14:21;100039.41;;;19.90;41.44
8637;BME280;4356;49.068;8.658;2024-02-15T12:17:07;100040.03;;;19.92;41.09
8637;BME280;4356;49.068;8.658;2024-02-15T12:19:52;100032.69;;;19.93;41.31
8637;BME280;4356;49.068;8.658;2024-02-15T12:22:24;100031.38;;;19.95;41.05
8637;BME280;4356;49.068;8.658;2024-02-15T12:24:58;100019.06;;;19.93;40.86
8637;BME280;4356;49.068;8.658;2024-02-15T12:27:25;100008.34;;;19.91;41.56
8637;BME280;4356;49.068;8.658;2024-02-15T12:29:59;100006.00;;;19.95;40.64
8637;BME280;4356;49.068;8.658;2024-02-15T12:32:26;100001.97;;;19.97;40.85
8637;BME280;4356;49.068;8.658;2024-02-15T12:34:53;99994.03;;;19.96;40.86
8637;BME280;4356;49.068;8.658;2024-02-15T12:37:21;99992.53;;;20.00;40.80
8637;BME280;4356;49.068;8.658;2024-02-15T12:39:49;99993.31;;;20.00;40.58
8637;BME280;4356;49.068;8.658;2024-02-15T12:42:15;99983.72;;;19.98;40.86
8637;BME280;4356;49.068;8.658;2024-02-15T12:44:46;99989.56;;;20.01;40.72
8637;BME280;4356;49.068;8.658;2024-02-15T12:47:22;99986.34;;;20.04;40.85
8637;BME280;4356;49.068;8.658;2024-02-15T12:49:48;99978.66;;;20.01;40.63
8637;BME280;4356;49.068;8.658;2024-02-15T12:52:38;99986.13;;;20.06;40.61
8637;BME280;4356;49.068;8.658;2024-02-15T12:55:12;99974.84;;;20.02;40.87
8637;BME280;4356;49.068;8.658;2024-02-15T12:57:39;99974.59;;;20.04;41.34
8637;BME280;4356;49.068;8.658;2024-02-15T13:00:07;99969.16;;;20.04;40.83
8637;BME280;4356;49.068;8.658;2024-02-15T13:02:38;99979.38;;;20.08;41.09
8637;BME280;4356;49.068;8.658;2024-02-15T13:05:04;99955.97;;;20.01;40.95
8637;BME280;4356;49.068;8.658;2024-02-15T13:07:30;99948.88;;;20.00;41.03
8637;BME280;4356;49.068;8.658;2024-02-15T13:09:56;99972.66;;;20.11;40.90
8637;BME280;4356;49.068;8.658;2024-02-15T13:12:22;99952.09;;;20.08;40.92
8637;BME280;4356;49.068;8.658;2024-02-15T13:14:48;99945.81;;;20.08;41.17
8637;BME280;4356;49.068;8.658;2024-02-15T13:17:15;99943.06;;;20.08;40.93
8637;BME280;4356;49.068;8.658;2024-02-15T13:19:45;99942.25;;;20.07;40.55
8637;BME280;4356;49.068;8.658;2024-02-15T13:22:14;99946.16;;;20.11;40.91
8637;BME280;4356;49.068;8.658;2024-02-15T13:24:41;99932.03;;;20.03;40.65